Time;durP1;ratioP1;P1;durP2;ratioP2;P2;SDS_P1;SDS_P2;PMS_P1;PMS_P2;Temp;Humidity;BMP_temperature;BMP_pressure;BME280_temperature;BME280_humidity;BME280_pressure;Samples;Min_cycle;Max_cycle;Signal;HPM_P1;HPM_P2
2022/05/01 00:07:33;;;;;;;12.32;6.20;;;;;;;11.74;64.96;100883.94;18428550;32;20420;-63
2022/05/01 00:17:38;;;;;;;11.63;6.12;;;;;;;11.67;65.00;100896.16;18429422;32;20365;-63
2022/05/01 00:27:41;;;;;;;11.35;5.65;;;;;;;11.62;65.29;100890.03;18414654;32;20097;-63
2022/05/01 00:37:46;;;;;;;9.82;5.82;;;;;;;11.40;65.65;100895.22;18428832;32;20100;-63
2022/05/01 00:47:50;;;;;;;10.15;5.07;;;;;;;11.69;64.55;100889.19;18436145;32;20108;-63
2022/05/01 00:57:54;;;;;;;11.30;5.65;;;;;;;11.66;64.05;100889.16;18435538;32;20097;-63
2022/05/01 01:08:00;;;;;;;10.25;5.25;;;;;;;11.77;64.34;100886.56;18435481;32;20098;-63
2022/05/01 01:18:05;;;;;;;8.73;4.95;;;;;;;11.59;63.96;100895.28;18436160;32;20104;-63
2022/05/01 01:28:10;;;;;;;9.48;5.25;;;;;;;11.93;63.64;100901.41;18435006;32;20128;-63
2022/05/01 01:38:13;;;;;;;11.07;4.93;;;;;;;11.79;64.54;100888.31;18434057;32;20093;-63
2022/05/01 01:48:19;;;;;;;10.52;5.10;;;;;;;11.50;65.80;100894.37;18434576;32;20093;-63
2022/05/01 01:58:23;;;;;;;10.20;4.45;;;;;;;11.75;65.23;100885.69;18433800;32;20109;-63
2022/05/01 02:08:27;;;;;;;12.23;5.40;;;;;;;11.37;65.99;100887.38;18434818;32;20112;-64
2022/05/01 02:18:31;;;;;;;8.95;4.80;;;;;;;11.37;65.56;100900.44;18434440;32;20366;-63
2022/05/01 02:28:36;;;;;;;8.05;4.32;;;;;;;11.61;64.21;100890.91;18434399;32;20146;-63
2022/05/01 02:38:39;;;;;;;10.40;4.37;;;;;;;11.71;64.41;100883.94;18432866;32;20556;-63
2022/05/01 02:48:44;;;;;;;9.68;4.85;;;;;;;11.57;64.23;100883.91;18432546;32;20362;-63
2022/05/01 02:58:47;;;;;;;7.97;4.05;;;;;;;11.63;64.59;100876.09;18432316;32;20093;-64
2022/05/01 03:08:52;;;;;;;7.93;3.92;;;;;;;11.80;64.18;100886.56;18430758;32;20096;-63
2022/05/01 03:29:17;;;;;;;9.20;4.45;;;;;;;11.54;65.13;100879.56;18431301;32;20389;-63
2022/05/01 03:39:21;;;;;;;8.48;4.32;;;;;;;11.64;65.45;100891.78;18430683;32;20154;-63
2022/05/01 03:49:26;;;;;;;7.72;3.55;;;;;;;11.63;65.02;100895.28;18430260;32;20429;-63
2022/05/01 03:59:29;;;;;;;11.35;3.85;;;;;;;11.54;65.77;100899.59;18429377;32;20105;-63
2022/05/01 04:09:34;;;;;;;8.68;4.20;;;;;;;11.83;65.05;100902.28;18429384;32;20365;-63
2022/05/01 04:19:37;;;;;;;8.48;4.35;;;;;;;12.42;62.78;100907.50;18435554;32;20092;-63
2022/05/01 04:29:43;;;;;;;6.87;3.60;;;;;;;12.03;63.87;100907.53;18436623;32;20147;-64
2022/05/01 04:39:48;;;;;;;8.20;3.83;;;;;;;12.33;61.48;100912.75;18436603;32;20101;-63
2022/05/01 04:49:52;;;;;;;8.90;4.45;;;;;;;12.35;62.78;100927.59;18437086;32;20104;-63
2022/05/01 04:59:56;;;;;;;8.57;4.25;;;;;;;12.74;62.35;100934.50;18435009;32;20108;-64
2022/05/01 05:10:01;;;;;;;9.80;4.22;;;;;;;13.12;60.68;100943.09;18435451;32;20438;-63
2022/05/01 05:20:05;;;;;;;7.25;3.95;;;;;;;12.92;61.66;100944.03;18434704;32;20146;-64
2022/05/01 05:30:11;;;;;;;9.38;4.22;;;;;;;13.53;60.53;100956.91;18434064;32;20113;-64
2022/05/01 05:40:14;;;;;;;7.55;4.05;;;;;;;14.15;58.17;100951.25;18434603;32;20085;-64
2022/05/01 05:50:19;;;;;;;6.00;3.28;;;;;;;15.25;54.89;100944.00;18434312;32;20089;-64
2022/05/01 06:00:22;;;;;;;6.62;3.70;;;;;;;16.08;52.77;100948.97;18433635;32;20089;-64
2022/05/01 06:10:27;;;;;;;6.37;3.28;;;;;;;16.75;51.28;100950.44;18433698;32;20115;-64
2022/05/01 06:20:30;;;;;;;6.55;3.22;;;;;;;17.09;47.33;100965.63;18433300;32;20658;-64
2022/05/01 06:30:34;;;;;;;6.90;3.12;;;;;;;17.94;40.87;100949.66;18433068;32;20115;-64
2022/05/01 06:40:38;;;;;;;6.62;3.10;;;;;;;18.43;40.74;100946.72;18418167;32;20088;-64
2022/05/01 06:50:43;;;;;;;6.45;3.17;;;;;;;18.65;40.12;100954.94;18432773;32;20155;-65
2022/05/01 07:00:46;;;;;;;8.40;3.20;;;;;;;19.99;38.39;100950.19;18431864;32;20097;-65
2022/05/01 07:10:51;;;;;;;6.95;2.95;;;;;;;20.47;36.45;100951.22;18432016;32;20107;-65
2022/05/01 07:21:00;;;;;;;6.78;3.20;;;;;;;21.91;34.97;100929.06;18431730;32;20112;-65
2022/05/01 07:31:04;;;;;;;5.55;2.65;;;;;;;23.31;30.74;100922.94;18430884;32;20650;-65
2022/05/01 07:41:08;;;;;;;3.97;2.45;;;;;;;22.49;33.09;100930.19;18416896;32;20123;-65
2022/05/01 07:51:13;;;;;;;5.60;2.67;;;;;;;21.81;35.10;100927.69;18429512;32;20468;-65
2022/05/01 08:01:16;;;;;;;5.47;2.35;;;;;;;21.71;36.37;100913.94;18429225;32;20650;-65
2022/05/01 08:11:21;;;;;;;4.25;1.90;;;;;;;22.05;35.51;100909.84;18428946;32;20120;-65
2022/05/01 08:21:24;;;;;;;3.70;1.83;;;;;;;21.52;36.20;100911.09;18428202;32;20093;-65
2022/05/01 08:31:29;;;;;;;4.80;2.10;;;;;;;21.85;35.61;100895.59;18427683;32;20134;-65
2022/05/01 08:41:33;;;;;;;2.10;1.37;;;;;;;23.27;34.81;100884.91;18428396;32;20150;-65
2022/05/01 08:51:40;;;;;;;2.83;1.40;;;;;;;22.33;33.99;100884.72;18426456;32;20112;-65
2022/05/01 09:01:44;;;;;;;1.75;1.30;;;;;;;23.32;31.92;100866.06;18428943;32;20185;-65
2022/05/01 09:22:13;;;;;;;3.62;1.50;;;;;;;23.62;32.59;100852.22;18421832;32;20110;-65
2022/05/01 09:32:35;;;;;;;3.22;1.50;;;;;;;24.29;30.68;100845.31;18434830;32;20089;-65
2022/05/01 09:42:38;;;;;;;3.37;1.60;;;;;;;24.76;30.06;100827.66;18434663;32;20093;-65
2022/05/01 09:52:56;;;;;;;4.37;1.75;;;;;;;25.75;28.76;100826.56;18434166;32;20108;-65
2022/05/01 10:02:59;;;;;;;3.12;1.60;;;;;;;25.85;28.89;100822.38;18434400;32;20111;-65
2022/05/01 10:13:04;;;;;;;2.47;1.40;;;;;;;25.70;28.64;100807.25;18433297;32;20107;-65
2022/05/01 10:23:28;;;;;;;5.82;2.10;;;;;;;25.40;29.71;100800.94;18433347;32;20115;-64
2022/05/01 10:33:41;;;;;;;2.10;1.42;;;;;;;24.73;25.55;100795.81;18419846;32;20433;-65
2022/05/01 10:43:54;;;;;;;2.58;1.62;;;;;;;23.83;29.39;100791.59;18433120;32;20447;-64
2022/05/01 10:54:35;;;;;;;2.65;1.55;;;;;;;23.67;29.24;100777.38;18432576;32;20107;-65
2022/05/01 11:04:42;;;;;;;5.23;2.30;;;;;;;23.42;28.91;100771.44;18432076;32;20089;-65
2022/05/01 11:14:52;;;;;;;3.05;1.52;;;;;;;22.97;25.71;100764.81;18418828;32;20429;-65
2022/05/01 11:24:55;;;;;;;4.27;1.80;;;;;;;22.79;26.04;100755.87;18430517;32;20438;-65
2022/05/01 11:35:00;;;;;;;4.37;1.95;;;;;;;22.77;23.19;100758.66;18431455;32;20105;-65
2022/05/01 11:45:04;;;;;;;3.00;1.60;;;;;;;23.39;25.93;100744.97;18430743;32;20107;-65
2022/05/01 11:55:10;;;;;;;3.37;1.87;;;;;;;23.81;24.54;100737.50;18430143;32;20173;-65
2022/05/01 12:05:13;;;;;;;2.40;1.40;;;;;;;24.21;24.63;100715.88;18429451;32;20214;-65
2022/05/01 12:15:18;;;;;;;2.83;1.48;;;;;;;23.98;24.08;100707.28;18429014;32;20107;-64
2022/05/01 12:25:25;;;;;;;3.55;1.50;;;;;;;23.66;25.26;100699.22;18428269;32;20105;-65
2022/05/01 12:35:45;;;;;;;3.28;1.77;;;;;;;23.87;26.70;100693.69;18430531;32;20110;-64
2022/05/01 12:45:48;;;;;;;3.35;1.50;;;;;;;24.16;23.44;100679.75;18436219;32;20093;-65
2022/05/01 12:55:53;;;;;;;4.12;1.60;;;;;;;24.42;23.14;100661.41;18435802;32;20100;-65
2022/05/01 13:06:03;;;;;;;4.10;1.70;;;;;;;25.40;21.65;100647.75;18435454;32;20135;-65
2022/05/01 13:16:08;;;;;;;3.00;1.47;;;;;;;24.92;22.28;100633.66;18435500;32;20089;-65
2022/05/01 13:26:11;;;;;;;2.83;1.42;;;;;;;25.31;21.53;100631.34;18434783;32;20125;-65
2022/05/01 13:36:16;;;;;;;3.85;1.70;;;;;;;25.42;22.20;100619.13;18420383;32;20169;-66
2022/05/01 13:46:19;;;;;;;2.05;1.30;;;;;;;24.78;22.26;100609.56;18433988;32;20093;-66
2022/05/01 13:56:25;;;;;;;3.30;1.40;;;;;;;24.76;23.68;100601.62;18434099;32;20113;-66
2022/05/01 14:06:29;;;;;;;1.98;1.27;;;;;;;25.04;23.07;100591.12;18433927;32;20107;-67
2022/05/01 14:16:34;;;;;;;1.37;1.00;;;;;;;25.27;21.14;100588.88;18433958;32;20093;-66
2022/05/01 14:26:37;;;;;;;2.08;1.37;;;;;;;24.30;23.39;100581.12;18433518;32;20515;-66
2022/05/01 14:36:44;;;;;;;3.22;1.65;;;;;;;24.29;23.74;100578.56;18433082;32;20123;-66
2022/05/01 14:46:50;;;;;;;2.25;1.40;;;;;;;24.37;22.57;100570.97;18432833;32;20115;-66
2022/05/01 14:56:57;;;;;;;3.03;1.50;;;;;;;24.62;23.42;100558.87;18432434;32;20106;-66
2022/05/01 15:07:03;;;;;;;2.50;1.30;;;;;;;24.52;24.06;100553.22;18430975;32;20105;-66
2022/05/01 15:17:09;;;;;;;2.17;1.40;;;;;;;24.24;23.89;100546.84;18425941;32;20115;-67
2022/05/01 15:27:17;;;;;;;2.87;1.50;;;;;;;24.32;23.31;100549.03;18366901;32;20115;-66
2022/05/01 15:37:24;;;;;;;1.90;1.05;;;;;;;23.91;24.71;100545.97;18352830;32;20234;-66
2022/05/01 15:47:31;;;;;;;2.53;1.52;;;;;;;23.89;22.08;100537.16;18361868;32;20107;-66
2022/05/01 15:57:37;;;;;;;5.00;1.77;;;;;;;24.04;24.04;100527.47;18355460;32;115058;-66
2022/05/01 16:07:44;;;;;;;3.62;1.67;;;;;;;23.41;23.75;100524.66;18365699;32;20395;-66
2022/05/01 16:18:05;;;;;;;2.08;1.40;;;;;;;23.84;23.46;100515.25;18372937;32;20100;-66
2022/05/01 16:28:11;;;;;;;3.42;1.60;;;;;;;23.80;23.29;100519.91;18358517;32;20128;-66
2022/05/01 16:38:17;;;;;;;1.50;1.25;;;;;;;23.04;24.12;100515.97;18372351;32;20630;-66
2022/05/01 16:48:20;;;;;;;3.62;1.87;;;;;;;23.07;23.63;100515.81;18372091;32;20143;-66
2022/05/01 16:58:25;;;;;;;2.05;1.30;;;;;;;23.09;24.62;100521.91;18357892;32;20182;-66
2022/05/01 17:08:44;;;;;;;2.35;1.30;;;;;;;22.95;25.60;100527.09;18358470;32;20453;-65
2022/05/01 17:18:53;;;;;;;3.35;1.65;;;;;;;22.26;26.77;100529.66;18370979;32;20094;-65
2022/05/01 17:29:01;;;;;;;4.00;1.80;;;;;;;21.83;27.73;100545.87;18371867;32;20085;-65
2022/05/01 17:39:06;;;;;;;3.62;1.95;;;;;;;21.42;30.28;100547.66;18356610;32;20116;-65
2022/05/01 17:49:11;;;;;;;4.18;1.98;;;;;;;20.57;33.86;100562.78;18370458;32;20136;-65
2022/05/01 17:59:18;;;;;;;5.47;2.35;;;;;;;19.96;36.68;100561.69;18369735;32;20720;-66
2022/05/01 18:19:55;;;;;;;5.65;2.55;;;;;;;18.71;39.59;100586.37;18372349;32;20136;-65
2022/05/01 18:30:17;;;;;;;8.02;3.10;;;;;;;18.30;41.96;100594.72;18369727;32;20109;-65
2022/05/01 18:40:24;;;;;;;6.55;3.35;;;;;;;17.58;45.73;100610.00;18367963;32;20108;-65
2022/05/01 18:50:27;;;;;;;8.05;3.37;;;;;;;17.26;46.90;100610.88;18354163;32;20112;-65
2022/05/01 19:00:32;;;;;;;8.73;3.83;;;;;;;16.27;49.20;100617.66;18353553;32;20098;-65
2022/05/01 19:10:38;;;;;;;10.68;3.90;;;;;;;16.11;49.85;100632.91;18353906;32;20117;-65
2022/05/01 19:21:01;;;;;;;8.63;4.03;;;;;;;15.64;51.92;100641.69;18367399;32;20112;-64
2022/05/01 19:31:09;;;;;;;9.45;4.40;;;;;;;15.19;54.33;100649.56;18353230;32;20112;-64
2022/05/01 19:41:26;;;;;;;14.65;4.53;;;;;;;14.96;53.62;100649.06;18352633;32;20445;-64
2022/05/01 20:02:06;;;;;;;10.27;5.25;;;;;;;14.09;57.36;100654.66;18364931;32;20085;-65
2022/05/01 20:12:11;;;;;;;11.63;5.40;;;;;;;13.69;59.02;100662.12;18363618;32;20171;-64
2022/05/01 20:22:20;;;;;;;14.23;6.40;;;;;;;13.61;58.46;100658.72;18365320;32;20131;-64
2022/05/01 20:32:30;;;;;;;14.23;5.95;;;;;;;13.89;58.32;100663.66;18349900;32;20112;-65
2022/05/01 20:43:06;;;;;;;13.93;5.95;;;;;;;13.14;60.89;100672.22;18364368;32;20155;-65
2022/05/01 20:53:18;;;;;;;12.85;5.95;;;;;;;12.90;62.80;100663.69;18352956;32;20101;-65
2022/05/01 21:03:23;;;;;;;11.65;4.57;;;;;;;12.87;61.87;100661.09;18357700;32;20105;-64
2022/05/01 21:13:31;;;;;;;14.93;6.60;;;;;;;12.25;63.91;100658.88;18357177;32;20101;-64
2022/05/01 21:23:35;;;;;;;16.00;7.70;;;;;;;12.35;62.95;100663.19;18356946;32;20115;-64
2022/05/01 21:33:46;;;;;;;13.20;5.63;;;;;;;12.31;62.81;100666.66;18371052;32;20089;-64
2022/05/01 21:43:49;;;;;;;9.02;4.75;;;;;;;11.96;63.03;100666.81;18371672;32;20135;-64
2022/05/01 21:53:54;;;;;;;8.35;4.07;;;;;;;11.45;63.99;100663.44;18369930;32;20115;-64
2022/05/01 22:03:57;;;;;;;7.68;4.40;;;;;;;11.77;63.53;100661.63;18368474;32;20156;-65
2022/05/01 22:14:02;;;;;;;9.77;4.82;;;;;;;11.61;64.53;100656.44;18365487;32;20394;-64
2022/05/01 22:24:08;;;;;;;10.95;5.07;;;;;;;11.03;66.75;100660.00;18364047;32;20140;-65
2022/05/01 22:34:12;;;;;;;13.60;7.00;;;;;;;11.31;65.03;100652.16;18361789;32;20107;-64
2022/05/01 22:44:16;;;;;;;18.17;9.02;;;;;;;11.12;66.07;100656.50;18356859;32;20176;-64
2022/05/01 22:54:21;;;;;;;29.05;13.85;;;;;;;11.03;65.88;100649.56;18386917;32;20111;-64
2022/05/01 23:04:24;;;;;;;17.17;7.72;;;;;;;10.76;67.02;100656.50;18430858;32;20093;-64
2022/05/01 23:14:29;;;;;;;15.07;6.50;;;;;;;10.36;68.04;100649.41;18430231;32;20132;-64
2022/05/01 23:24:32;;;;;;;10.80;5.55;;;;;;;10.43;68.46;100648.59;18428638;32;20097;-64
2022/05/01 23:34:36;;;;;;;11.90;5.82;;;;;;;10.22;69.60;100632.00;18429168;32;20088;-64
2022/05/01 23:44:40;;;;;;;13.90;7.22;;;;;;;10.55;69.14;100630.34;18428864;32;20100;-64
2022/05/01 23:54:44;;;;;;;13.05;6.25;;;;;;;10.71;68.95;100626.87;18428796;32;20101;-64
